Time;durP1;ratioP1;P1;durP2;ratioP2;P2;SDS_P1;SDS_P2;PMS_P1;PMS_P2;Temp;Humidity;BMP_temperature;BMP_pressure;BME280_temperature;BME280_humidity;BME280_pressure;Samples;Min_cycle;Max_cycle;Signal;HPM_P1;HPM_P2
2023/04/30 00:00:09;;;;;;;16.20;9.52;;;7.20;99.90;;;;;;5015336;28;20043;-80
2023/04/30 00:02:34;;;;;;;14.63;9.13;;;7.20;99.90;;;;;;5039445;28;20029;-80
2023/04/30 00:05:00;;;;;;;18.52;10.02;;;7.10;99.90;;;;;;5026921;28;20033;-80
2023/04/30 00:07:26;;;;;;;17.55;9.15;;;7.10;99.90;;;;;;5045687;28;20057;-80
2023/04/30 00:09:51;;;;;;;21.55;9.40;;;7.10;99.90;;;;;;5043084;28;20072;-80
2023/04/30 00:12:17;;;;;;;13.43;9.90;;;7.10;99.90;;;;;;5028247;28;20036;-80
2023/04/30 00:14:42;;;;;;;12.10;8.40;;;7.10;99.90;;;;;;5028089;28;20191;-80
2023/04/30 00:17:08;;;;;;;14.73;9.80;;;7.10;99.90;;;;;;5025785;28;20142;-79
2023/04/30 00:19:33;;;;;;;13.85;10.50;;;7.00;99.90;;;;;;5027077;28;20048;-80
2023/04/30 00:22:02;;;;;;;14.35;9.45;;;7.00;99.90;;;;;;5042888;28;20389;-79
2023/04/30 00:24:28;;;;;;;13.27;9.27;;;7.00;99.90;;;;;;5027250;28;20086;-79
2023/04/30 00:26:53;;;;;;;14.82;10.15;;;7.00;99.90;;;;;;5008946;28;20045;-79
2023/04/30 00:29:19;;;;;;;16.65;10.05;;;7.00;99.90;;;;;;5026511;28;20040;-79
2023/04/30 00:31:44;;;;;;;13.52;9.77;;;7.00;99.90;;;;;;5028123;28;20029;-80
2023/04/30 00:34:10;;;;;;;15.73;10.00;;;6.90;99.90;;;;;;5024548;28;20037;-80
2023/04/30 00:36:36;;;;;;;14.18;9.57;;;6.80;99.90;;;;;;5025820;28;20040;-80
2023/04/30 00:39:02;;;;;;;18.42;10.10;;;6.70;99.90;;;;;;5027205;28;20090;-80
2023/04/30 00:41:27;;;;;;;14.68;10.07;;;6.70;99.90;;;;;;5042799;28;20040;-80
2023/04/30 00:43:53;;;;;;;15.75;10.20;;;6.70;99.90;;;;;;5043433;28;20175;-79
2023/04/30 00:46:18;;;;;;;19.15;10.90;;;6.70;99.90;;;;;;5027928;28;20504;-80
2023/04/30 00:48:44;;;;;;;18.80;10.50;;;6.70;99.90;;;;;;5011067;28;20538;-80
2023/04/30 00:51:10;;;;;;;14.73;10.98;;;6.60;99.90;;;;;;5028197;28;20044;-80
2023/04/30 00:53:37;;;;;;;17.92;10.27;;;6.60;99.90;;;;;;5041276;28;20605;-80
2023/04/30 00:56:03;;;;;;;16.98;10.02;;;6.60;99.90;;;;;;5028415;28;20064;-80
2023/04/30 00:58:29;;;;;;;16.67;10.95;;;6.60;99.90;;;;;;5025353;28;20041;-80
2023/04/30 01:00:54;;;;;;;17.95;10.48;;;6.60;99.90;;;;;;5026176;28;20091;-80
2023/04/30 01:03:21;;;;;;;18.90;10.55;;;6.60;99.90;;;;;;5044556;28;20393;-80
2023/04/30 01:05:47;;;;;;;15.38;10.38;;;6.50;99.90;;;;;;5043267;28;20127;-80
2023/04/30 01:08:12;;;;;;;15.77;10.15;;;6.50;99.90;;;;;;5042996;28;20426;-80
2023/04/30 01:10:42;;;;;;;14.77;10.32;;;6.40;99.90;;;;;;5041584;28;20025;-80
2023/04/30 01:13:20;;;;;;;21.60;11.32;;;6.40;99.90;;;;;;5023199;28;20033;-80
2023/04/30 01:16:12;;;;;;;22.77;10.57;;;6.40;99.90;;;;;;5025714;28;20044;-80
2023/04/30 01:18:50;;;;;;;16.50;11.40;;;6.30;99.90;;;;;;5017471;28;20515;-80
2023/04/30 01:21:16;;;;;;;18.88;11.10;;;6.40;99.90;;;;;;5008267;28;20109;-80
2023/04/30 01:24:19;;;;;;;17.05;11.02;;;6.40;99.90;;;;;;5008790;28;20124;-80
2023/04/30 01:26:58;;;;;;;18.67;11.18;;;6.40;99.90;;;;;;5037497;28;20036;-81
2023/04/30 01:29:24;;;;;;;16.83;11.30;;;6.50;99.90;;;;;;5030591;28;20515;-80
2023/04/30 01:31:49;;;;;;;16.20;10.90;;;6.40;99.90;;;;;;5025262;28;20037;-80
2023/04/30 01:34:15;;;;;;;18.45;11.93;;;6.40;99.90;;;;;;5040555;28;20115;-80
2023/04/30 01:36:59;;;;;;;19.02;11.82;;;6.30;99.90;;;;;;5024655;28;20112;-80
2023/04/30 01:39:38;;;;;;;21.63;12.25;;;6.20;99.90;;;;;;5038332;28;20041;-80
2023/04/30 01:42:05;;;;;;;17.48;11.40;;;6.20;99.90;;;;;;5041309;28;20029;-80
2023/04/30 01:45:02;;;;;;;17.88;11.63;;;6.10;99.90;;;;;;5026148;28;20033;-81
2023/04/30 01:47:54;;;;;;;20.17;11.77;;;6.10;99.90;;;;;;5042516;28;20039;-81
2023/04/30 01:50:39;;;;;;;16.67;11.35;;;6.00;99.90;;;;;;5041095;28;20562;-80
2023/04/30 01:53:09;;;;;;;18.08;12.38;;;6.00;99.90;;;;;;5039712;28;20568;-81
2023/04/30 01:55:57;;;;;;;18.65;11.45;;;5.90;99.90;;;;;;5022293;28;20098;-79
2023/04/30 01:58:23;;;;;;;23.48;12.60;;;5.90;99.90;;;;;;5026174;28;20489;-81
2023/04/30 02:00:48;;;;;;;20.50;12.02;;;5.90;99.90;;;;;;5040948;28;20037;-80
2023/04/30 02:03:14;;;;;;;19.38;12.32;;;5.80;99.90;;;;;;5037598;28;20049;-81
2023/04/30 02:05:40;;;;;;;21.45;12.25;;;5.90;99.90;;;;;;5042062;28;20032;-81
2023/04/30 02:08:05;;;;;;;22.48;13.52;;;5.80;99.90;;;;;;5039746;28;20039;-81
2023/04/30 02:10:31;;;;;;;24.75;13.35;;;5.80;99.90;;;;;;5006987;28;20029;-81
2023/04/30 02:12:57;;;;;;;22.58;12.93;;;5.80;99.90;;;;;;5023398;28;20052;-81
2023/04/30 02:15:22;;;;;;;20.50;12.25;;;5.80;99.90;;;;;;5044279;28;20078;-81
2023/04/30 02:17:48;;;;;;;17.65;12.00;;;5.80;99.90;;;;;;5020257;28;20047;-81
2023/04/30 02:20:13;;;;;;;18.85;12.60;;;5.80;99.90;;;;;;5038026;28;20285;-81
2023/04/30 02:22:40;;;;;;;13.38;9.45;;;5.80;99.90;;;;;;5040266;28;20056;-81
2023/04/30 02:25:06;;;;;;;22.75;12.20;;;5.80;99.90;;;;;;5008471;28;20033;-81
2023/04/30 02:27:32;;;;;;;21.58;13.68;;;5.80;99.90;;;;;;5008827;28;20033;-81
2023/04/30 02:29:58;;;;;;;19.63;12.68;;;5.70;99.90;;;;;;5021824;28;20040;-79
2023/04/30 02:32:23;;;;;;;20.45;13.55;;;5.60;99.90;;;;;;5043737;28;20114;-79
2023/04/30 02:34:49;;;;;;;23.17;14.57;;;5.50;99.90;;;;;;5025215;28;20825;-80
2023/04/30 02:37:14;;;;;;;24.67;14.40;;;5.60;99.90;;;;;;5026491;28;20107;-81
2023/04/30 02:39:40;;;;;;;22.45;13.85;;;5.60;99.90;;;;;;5024445;28;20047;-80
2023/04/30 02:42:06;;;;;;;31.00;14.95;;;5.50;99.90;;;;;;5024836;28;20530;-82
2023/04/30 02:44:32;;;;;;;21.30;14.38;;;5.40;99.90;;;;;;5039224;28;20072;-80
2023/04/30 02:46:58;;;;;;;23.55;14.05;;;5.40;99.90;;;;;;5009218;28;20044;-81
2023/04/30 02:49:23;;;;;;;23.05;15.27;;;5.30;99.90;;;;;;5007292;28;20021;-81
2023/04/30 02:51:49;;;;;;;25.55;15.02;;;5.30;99.90;;;;;;5025396;28;20041;-81
2023/04/30 02:54:14;;;;;;;26.30;14.63;;;5.30;99.90;;;;;;5038135;28;20044;-81
2023/04/30 02:56:40;;;;;;;23.08;14.73;;;5.30;99.90;;;;;;5023577;28;20029;-81
2023/04/30 02:59:07;;;;;;;22.35;15.05;;;5.30;99.90;;;;;;5005861;28;20036;-81
2023/04/30 03:01:32;;;;;;;25.35;15.70;;;5.20;99.90;;;;;;5009510;28;20107;-80
2023/04/30 03:03:58;;;;;;;24.20;15.70;;;5.30;99.90;;;;;;5041218;28;20124;-80
2023/04/30 03:06:23;;;;;;;27.88;16.15;;;5.30;99.90;;;;;;5039290;28;20090;-81
2023/04/30 03:08:49;;;;;;;23.88;16.25;;;5.20;99.90;;;;;;5021729;28;20033;-80
2023/04/30 03:11:15;;;;;;;23.83;16.25;;;5.10;99.90;;;;;;5022613;28;20060;-82
2023/04/30 03:13:41;;;;;;;33.35;17.40;;;5.10;99.90;;;;;;5008366;28;20033;-80
2023/04/30 03:16:07;;;;;;;30.75;16.88;;;5.10;99.90;;;;;;5029490;28;20447;-81
2023/04/30 03:18:32;;;;;;;28.38;15.70;;;5.00;99.90;;;;;;5040224;28;20041;-80
2023/04/30 03:20:58;;;;;;;28.60;16.83;;;4.90;99.90;;;;;;5020369;28;20045;-81
2023/04/30 03:23:26;;;;;;;24.65;16.02;;;4.90;99.90;;;;;;5005771;28;20040;-80
2023/04/30 03:25:51;;;;;;;27.50;15.43;;;4.90;99.90;;;;;;5040122;28;20038;-80
2023/04/30 03:28:17;;;;;;;25.90;16.67;;;4.90;99.90;;;;;;5021530;28;20041;-81
2023/04/30 03:30:43;;;;;;;27.42;16.35;;;4.90;99.90;;;;;;5025595;28;20040;-81
2023/04/30 03:33:08;;;;;;;26.42;17.17;;;4.80;99.90;;;;;;5021979;28;20033;-80
2023/04/30 03:35:34;;;;;;;27.80;17.77;;;4.80;99.90;;;;;;5008960;28;20459;-82
2023/04/30 03:38:00;;;;;;;23.88;17.30;;;4.70;99.90;;;;;;5029672;28;20043;-79
2023/04/30 03:40:25;;;;;;;26.83;17.48;;;4.70;99.90;;;;;;5025209;28;20029;-80
2023/04/30 03:42:51;;;;;;;26.60;18.10;;;4.70;99.90;;;;;;5030183;28;20082;-81
2023/04/30 03:45:17;;;;;;;27.95;19.17;;;4.70;99.90;;;;;;5043162;28;20057;-81
2023/04/30 03:47:42;;;;;;;26.48;17.33;;;4.70;99.90;;;;;;5045801;28;20563;-81
2023/04/30 03:50:08;;;;;;;28.38;17.80;;;4.70;99.90;;;;;;5044396;28;20129;-81
2023/04/30 03:52:35;;;;;;;29.73;17.50;;;4.60;99.90;;;;;;5045914;28;20049;-81
2023/04/30 03:55:01;;;;;;;25.13;16.77;;;4.60;99.90;;;;;;5024299;28;20033;-81
2023/04/30 03:57:27;;;;;;;26.35;16.63;;;4.60;99.90;;;;;;5043118;28;20112;-81
2023/04/30 03:59:53;;;;;;;26.58;17.08;;;4.60;99.90;;;;;;5044084;28;20128;-81
2023/04/30 04:02:18;;;;;;;27.00;18.27;;;4.50;99.90;;;;;;5029276;28;20492;-81
2023/04/30 04:04:44;;;;;;;29.17;18.42;;;4.50;99.90;;;;;;5009453;28;20568;-81
2023/04/30 04:07:10;;;;;;;28.98;18.85;;;4.50;99.90;;;;;;5026813;28;20029;-80
2023/04/30 04:09:36;;;;;;;26.67;17.17;;;4.40;99.90;;;;;;5044554;28;20787;-81
2023/04/30 04:12:01;;;;;;;24.73;18.63;;;4.50;99.90;;;;;;5028236;28;20037;-81
2023/04/30 04:14:27;;;;;;;31.00;17.90;;;4.50;99.90;;;;;;5044788;28;20028;-80
2023/04/30 04:16:52;;;;;;;26.60;17.17;;;4.50;99.90;;;;;;5028753;28;20040;-81
2023/04/30 04:19:18;;;;;;;26.65;17.95;;;4.50;99.90;;;;;;5040436;28;20086;-81
2023/04/30 04:21:44;;;;;;;28.00;18.25;;;4.50;99.90;;;;;;5026143;28;20120;-81
2023/04/30 04:24:10;;;;;;;27.42;17.50;;;4.50;99.90;;;;;;5043012;28;20075;-81
2023/04/30 04:26:36;;;;;;;27.10;17.08;;;4.50;99.90;;;;;;5027803;28;20392;-80
2023/04/30 04:29:05;;;;;;;28.20;17.27;;;4.40;99.90;;;;;;5027728;28;20033;-81
2023/04/30 04:31:30;;;;;;;26.45;16.73;;;4.40;99.90;;;;;;5010237;28;20028;-81
2023/04/30 04:33:59;;;;;;;25.05;16.60;;;4.40;99.90;;;;;;5028827;28;20033;-80
2023/04/30 04:36:29;;;;;;;29.75;18.73;;;4.40;99.90;;;;;;5043241;28;20033;-80
2023/04/30 04:39:00;;;;;;;30.92;19.17;;;4.50;99.90;;;;;;5010503;28;20037;-80
2023/04/30 04:41:26;;;;;;;32.90;19.85;;;4.50;99.90;;;;;;5028007;28;20158;-81
2023/04/30 04:43:52;;;;;;;33.53;21.02;;;4.70;99.90;;;;;;5027855;28;20029;-81
2023/04/30 04:46:18;;;;;;;36.25;21.70;;;4.80;99.90;;;;;;5028887;28;20040;-80
2023/04/30 04:48:43;;;;;;;38.40;22.25;;;4.90;99.90;;;;;;5042174;28;20040;-81
2023/04/30 04:51:09;;;;;;;39.53;24.20;;;5.10;99.90;;;;;;5043354;28;20083;-81
2023/04/30 04:53:35;;;;;;;44.65;28.13;;;5.20;99.90;;;;;;5028562;28;20396;-80
2023/04/30 04:56:01;;;;;;;51.95;24.60;;;5.30;99.90;;;;;;5022729;28;20026;-80
2023/04/30 04:58:27;;;;;;;47.67;25.67;;;5.30;99.90;;;;;;5044012;28;20159;-79
2023/04/30 05:00:53;;;;;;;48.40;24.48;;;5.40;99.90;;;;;;5044339;28;20033;-80
2023/04/30 05:03:19;;;;;;;50.08;25.17;;;5.30;99.90;;;;;;5038053;28;20512;-80
2023/04/30 05:05:45;;;;;;;56.60;27.27;;;5.60;99.90;;;;;;5027487;28;20044;-81
2023/04/30 05:08:11;;;;;;;50.67;27.23;;;5.70;99.90;;;;;;5044351;28;20026;-80
2023/04/30 05:10:36;;;;;;;60.00;29.52;;;5.70;99.90;;;;;;5026217;28;20032;-79
2023/04/30 05:13:02;;;;;;;61.72;30.35;;;5.90;99.90;;;;;;5039203;28;20079;-81
2023/04/30 05:15:28;;;;;;;70.03;30.88;;;6.00;99.90;;;;;;5027495;28;20029;-79
2023/04/30 05:17:53;;;;;;;65.80;32.42;;;6.10;99.90;;;;;;5036340;28;20112;-81
2023/04/30 05:20:19;;;;;;;65.07;31.35;;;6.20;99.90;;;;;;5027260;28;20481;-81
2023/04/30 05:22:44;;;;;;;67.93;31.95;;;6.30;99.90;;;;;;5005540;28;20128;-81
2023/04/30 05:25:10;;;;;;;66.45;33.25;;;6.40;99.90;;;;;;5009126;28;20144;-80
2023/04/30 05:27:36;;;;;;;71.85;35.42;;;6.50;99.90;;;;;;5040944;28;20067;-79
2023/04/30 05:30:01;;;;;;;72.45;33.72;;;6.60;99.90;;;;;;5026811;28;20032;-80
2023/04/30 05:32:27;;;;;;;80.50;35.83;;;6.80;99.90;;;;;;5043893;28;20535;-79
2023/04/30 05:34:53;;;;;;;70.57;36.92;;;6.80;99.90;;;;;;5025798;28;20030;-80
2023/04/30 05:37:19;;;;;;;75.07;39.17;;;7.00;99.90;;;;;;5042399;28;20135;-81
2023/04/30 05:39:45;;;;;;;73.53;35.28;;;7.10;99.90;;;;;;5044680;28;20052;-80
2023/04/30 05:42:10;;;;;;;74.10;38.72;;;7.20;99.90;;;;;;5028251;28;20037;-80
2023/04/30 05:44:36;;;;;;;78.38;39.35;;;7.40;99.90;;;;;;5027055;28;20114;-81
2023/04/30 05:47:02;;;;;;;69.07;37.53;;;7.40;99.90;;;;;;5028226;28;20055;-81
2023/04/30 05:49:28;;;;;;;71.88;38.58;;;7.50;99.90;;;;;;5045246;28;20033;-81
2023/04/30 05:51:53;;;;;;;70.22;38.38;;;7.60;99.90;;;;;;5042216;28;20044;-80
2023/04/30 05:54:19;;;;;;;74.75;37.80;;;7.70;99.90;;;;;;5026478;28;20029;-81
2023/04/30 05:56:45;;;;;;;61.92;34.75;;;7.90;99.90;;;;;;5040301;28;20033;-80
2023/04/30 05:59:10;;;;;;;66.10;38.88;;;8.00;99.90;;;;;;5026321;28;20438;-80
2023/04/30 06:01:36;;;;;;;71.10;39.25;;;8.10;99.90;;;;;;5009411;28;20091;-80
2023/04/30 06:04:03;;;;;;;67.78;37.20;;;8.20;99.90;;;;;;5008328;28;20029;-80
2023/04/30 06:06:30;;;;;;;65.43;35.85;;;8.40;99.90;;;;;;5027355;28;20021;-81
2023/04/30 06:08:56;;;;;;;65.20;38.75;;;8.50;99.90;;;;;;5025717;28;20370;-81
2023/04/30 06:11:24;;;;;;;54.35;32.83;;;8.60;99.90;;;;;;5026335;28;20047;-82
2023/04/30 06:13:50;;;;;;;51.50;32.47;;;8.80;99.90;;;;;;5006740;28;20233;-81
2023/04/30 06:16:15;;;;;;;48.95;31.88;;;8.90;99.90;;;;;;5024157;28;20548;-81
2023/04/30 06:18:41;;;;;;;49.78;31.73;;;9.00;99.90;;;;;;5040178;28;20043;-81
2023/04/30 06:21:06;;;;;;;44.78;29.10;;;9.10;99.90;;;;;;5041769;28;20032;-81
2023/04/30 06:23:32;;;;;;;37.53;22.80;;;9.30;99.90;;;;;;5040480;28;20029;-81
2023/04/30 06:25:57;;;;;;;27.98;17.23;;;9.40;99.90;;;;;;5023702;28;20029;-81
2023/04/30 06:28:23;;;;;;;28.67;20.65;;;9.50;99.90;;;;;;5025943;28;20035;-81
2023/04/30 06:30:49;;;;;;;28.15;18.08;;;9.70;99.90;;;;;;5041282;28;20106;-81
2023/04/30 06:33:15;;;;;;;22.10;15.85;;;9.80;99.90;;;;;;5014036;28;20026;-81
2023/04/30 06:35:40;;;;;;;19.05;13.98;;;10.00;99.90;;;;;;5005382;28;20032;-81
2023/04/30 06:38:06;;;;;;;22.42;15.32;;;10.10;99.90;;;;;;5023336;28;20110;-81
2023/04/30 06:40:31;;;;;;;18.27;12.10;;;10.20;99.90;;;;;;5040615;28;20056;-80
2023/04/30 06:42:57;;;;;;;20.23;12.93;;;10.30;99.90;;;;;;5024937;28;20449;-80
2023/04/30 06:45:22;;;;;;;20.95;14.15;;;10.40;99.90;;;;;;5031651;28;20488;-81
2023/04/30 06:47:48;;;;;;;17.80;13.68;;;10.50;99.90;;;;;;5005177;28;21284;-81
2023/04/30 06:50:14;;;;;;;19.48;11.18;;;10.70;99.90;;;;;;5025911;28;20381;-81
2023/04/30 06:52:40;;;;;;;17.15;12.07;;;10.90;99.90;;;;;;5024992;28;20107;-81
2023/04/30 06:55:06;;;;;;;18.35;12.10;;;10.90;99.90;;;;;;5014801;28;20025;-81
2023/04/30 06:57:32;;;;;;;16.20;10.55;;;11.00;99.90;;;;;;5039615;28;20028;-81
2023/04/30 06:59:57;;;;;;;14.57;11.90;;;11.00;99.90;;;;;;5039634;28;20489;-81
2023/04/30 07:02:23;;;;;;;14.52;10.20;;;11.30;99.90;;;;;;5026039;28;20025;-81
2023/04/30 07:04:48;;;;;;;17.67;12.57;;;11.50;99.90;;;;;;5036301;28;20040;-81
2023/04/30 07:07:14;;;;;;;12.82;9.07;;;11.50;99.90;;;;;;5021761;28;20079;-81
2023/04/30 07:09:40;;;;;;;14.73;12.00;;;11.70;99.90;;;;;;5022688;28;20029;-81
2023/04/30 07:12:05;;;;;;;12.23;8.88;;;11.90;99.90;;;;;;5023896;28;20084;-81
2023/04/30 07:14:31;;;;;;;18.38;12.00;;;12.10;99.90;;;;;;5007446;28;20057;-80
2023/04/30 07:16:56;;;;;;;11.63;8.48;;;12.20;99.90;;;;;;5034927;28;20102;-81
2023/04/30 07:19:22;;;;;;;11.45;8.95;;;12.20;99.90;;;;;;5006330;28;20119;-80
2023/04/30 07:21:48;;;;;;;15.18;11.48;;;12.30;99.90;;;;;;5005549;28;20075;-81
2023/04/30 07:24:13;;;;;;;15.40;10.15;;;12.60;99.90;;;;;;5005216;28;20049;-81
2023/04/30 07:26:40;;;;;;;13.32;10.20;;;12.80;99.90;;;;;;5037939;28;20032;-81
2023/04/30 07:29:06;;;;;;;15.60;9.98;;;12.90;99.90;;;;;;5039126;28;20086;-81
2023/04/30 07:31:32;;;;;;;12.57;8.40;;;13.10;99.90;;;;;;5025721;28;20344;-80
2023/04/30 07:33:58;;;;;;;16.65;10.88;;;13.10;99.90;;;;;;5035712;28;20040;-81
2023/04/30 07:36:26;;;;;;;12.77;9.60;;;13.40;99.90;;;;;;5022102;28;20033;-81
2023/04/30 07:38:51;;;;;;;13.40;9.25;;;13.50;99.90;;;;;;5006890;28;20052;-80
2023/04/30 07:41:17;;;;;;;14.20;9.65;;;13.70;99.90;;;;;;5024620;28;20092;-79
2023/04/30 07:43:42;;;;;;;12.80;9.30;;;13.80;99.90;;;;;;5013807;28;20559;-79
2023/04/30 07:46:08;;;;;;;10.13;7.43;;;13.90;99.90;;;;;;5004722;28;20104;-79
2023/04/30 07:48:34;;;;;;;12.40;9.80;;;14.00;99.90;;;;;;5024978;28;20397;-79
2023/04/30 07:51:00;;;;;;;16.70;8.98;;;14.10;99.90;;;;;;5008331;28;20433;-79
2023/04/30 07:53:25;;;;;;;17.13;9.18;;;14.20;99.90;;;;;;5008878;28;20519;-79
2023/04/30 07:55:51;;;;;;;11.68;8.20;;;14.20;99.90;;;;;;5022027;28;20033;-79
2023/04/30 07:58:16;;;;;;;11.27;8.18;;;14.40;99.90;;;;;;5040640;28;20420;-79
2023/04/30 08:00:42;;;;;;;8.48;6.90;;;14.50;99.90;;;;;;5023235;28;20059;-79
2023/04/30 08:03:08;;;;;;;9.60;7.57;;;14.60;99.90;;;;;;5003796;28;20037;-79
2023/04/30 08:05:33;;;;;;;11.88;8.55;;;14.90;99.90;;;;;;5024101;28;20036;-79
2023/04/30 08:07:59;;;;;;;11.15;8.25;;;15.10;99.90;;;;;;5023041;28;20496;-79
2023/04/30 08:10:25;;;;;;;11.75;8.45;;;15.30;99.90;;;;;;5022868;28;20056;-79
2023/04/30 08:12:51;;;;;;;14.00;8.07;;;15.50;99.90;;;;;;5021761;28;20038;-79
2023/04/30 08:15:20;;;;;;;10.77;7.97;;;15.70;99.90;;;;;;5023284;28;20029;-79
2023/04/30 08:17:48;;;;;;;11.30;7.45;;;15.80;99.90;;;;;;5025331;28;20400;-79
2023/04/30 08:20:14;;;;;;;12.15;8.60;;;15.90;99.90;;;;;;5038955;28;20441;-79
2023/04/30 08:22:40;;;;;;;10.77;7.90;;;16.10;99.90;;;;;;5008343;28;20036;-80
2023/04/30 08:25:06;;;;;;;11.98;8.93;;;16.10;99.90;;;;;;5009620;28;20056;-79
2023/04/30 08:27:31;;;;;;;14.90;7.88;;;16.20;99.90;;;;;;5040892;28;20112;-79
2023/04/30 08:29:57;;;;;;;9.00;7.45;;;16.30;99.90;;;;;;5027702;28;20037;-80
2023/04/30 08:32:22;;;;;;;12.55;8.30;;;16.40;99.90;;;;;;5000590;28;20423;-80
2023/04/30 08:34:48;;;;;;;9.68;7.30;;;16.40;99.90;;;;;;5039623;28;20037;-80
2023/04/30 08:37:14;;;;;;;8.63;6.70;;;16.50;99.90;;;;;;5026478;28;20087;-81
2023/04/30 08:39:40;;;;;;;12.02;6.93;;;16.60;99.90;;;;;;5045685;28;20037;-81
2023/04/30 08:42:07;;;;;;;12.15;7.65;;;16.50;99.90;;;;;;5025550;28;20408;-82
2023/04/30 08:44:34;;;;;;;9.50;6.95;;;16.70;99.90;;;;;;5006332;28;20033;-80
2023/04/30 08:46:59;;;;;;;8.73;6.00;;;16.80;99.90;;;;;;5028296;28;20537;-80
2023/04/30 08:49:27;;;;;;;8.60;6.53;;;16.80;99.90;;;;;;5026427;28;20071;-80
2023/04/30 08:51:52;;;;;;;9.25;6.50;;;17.00;99.90;;;;;;5023731;28;20038;-81
2023/04/30 08:54:18;;;;;;;13.32;6.53;;;17.00;99.90;;;;;;5040444;28;20033;-80
2023/04/30 08:56:46;;;;;;;9.23;6.15;;;17.30;99.90;;;;;;5027306;28;20037;-81
2023/04/30 08:59:12;;;;;;;6.00;4.85;;;17.30;99.90;;;;;;5011968;28;20041;-81
2023/04/30 09:01:38;;;;;;;8.73;6.78;;;17.40;99.90;;;;;;5026384;28;20496;-81
2023/04/30 09:04:05;;;;;;;6.75;5.57;;;17.60;99.90;;;;;;5008247;28;20056;-81
2023/04/30 09:06:30;;;;;;;6.53;4.70;;;17.70;99.90;;;;;;5026783;28;20494;-79
2023/04/30 09:08:56;;;;;;;8.45;5.30;;;17.60;99.90;;;;;;5027238;28;20095;-79
2023/04/30 09:11:24;;;;;;;7.13;4.85;;;17.90;99.90;;;;;;5010436;28;20033;-81
2023/04/30 09:13:51;;;;;;;8.52;5.68;;;18.00;99.90;;;;;;5025533;28;20503;-79
2023/04/30 09:16:17;;;;;;;9.93;5.97;;;18.00;99.90;;;;;;5036736;28;20032;-79
2023/04/30 09:18:43;;;;;;;8.35;5.53;;;18.20;99.90;;;;;;5007842;28;20424;-79
2023/04/30 09:21:08;;;;;;;6.45;4.97;;;18.30;99.90;;;;;;5043256;28;20079;-78
2023/04/30 09:23:34;;;;;;;8.52;5.50;;;18.40;99.90;;;;;;5025586;28;20025;-80
2023/04/30 09:26:00;;;;;;;8.18;5.15;;;18.40;99.90;;;;;;5023179;28;20396;-78
2023/04/30 09:28:27;;;;;;;6.60;5.20;;;18.50;99.90;;;;;;5041666;28;20447;-80
2023/04/30 09:30:56;;;;;;;5.35;4.55;;;18.50;99.90;;;;;;5011200;28;20420;-78
2023/04/30 09:33:21;;;;;;;8.60;5.30;;;18.50;99.90;;;;;;5010964;28;20424;-78
2023/04/30 09:35:47;;;;;;;7.93;5.55;;;18.70;99.90;;;;;;5025256;28;20033;-79
2023/04/30 09:38:29;;;;;;;8.32;5.40;;;18.70;99.90;;;;;;5010653;28;20033;-79
2023/04/30 09:40:57;;;;;;;6.65;5.03;;;18.90;99.90;;;;;;5040669;28;20500;-79
2023/04/30 09:43:22;;;;;;;5.15;4.40;;;19.00;99.90;;;;;;5025279;28;20059;-79
2023/04/30 09:45:51;;;;;;;6.13;5.03;;;19.00;99.90;;;;;;5025494;28;20065;-78
2023/04/30 09:48:21;;;;;;;6.55;4.60;;;19.10;99.90;;;;;;5024993;28;20022;-79
2023/04/30 09:50:47;;;;;;;7.30;4.55;;;19.20;99.90;;;;;;5009897;28;20033;-79
2023/04/30 09:53:13;;;;;;;5.82;4.05;;;19.30;99.90;;;;;;5027454;28;20040;-79
2023/04/30 09:55:41;;;;;;;5.40;3.88;;;19.30;99.90;;;;;;5023455;28;20033;-79
2023/04/30 09:58:07;;;;;;;7.75;4.72;;;19.40;99.90;;;;;;5025206;28;20492;-78
2023/04/30 10:00:36;;;;;;;6.40;4.63;;;19.40;99.90;;;;;;5024650;28;20120;-78
2023/04/30 10:03:08;;;;;;;5.30;3.65;;;19.60;99.90;;;;;;5026130;28;20025;-78
2023/04/30 10:05:47;;;;;;;7.72;5.53;;;19.60;99.90;;;;;;5007343;28;20029;-78
2023/04/30 10:08:22;;;;;;;3.80;3.13;;;19.60;99.90;;;;;;5010193;28;20485;-77
2023/04/30 10:10:50;;;;;;;5.22;2.97;;;19.60;99.90;;;;;;5042261;28;20575;-78
2023/04/30 10:13:18;;;;;;;5.88;3.60;;;20.20;99.90;;;;;;5042006;28;20392;-78
2023/04/30 10:15:48;;;;;;;8.57;4.75;;;20.20;99.90;;;;;;5008272;28;20064;-78
2023/04/30 10:18:18;;;;;;;4.15;3.38;;;20.30;99.90;;;;;;5025372;28;20044;-78
2023/04/30 10:20:43;;;;;;;7.72;4.03;;;20.50;99.90;;;;;;5040790;28;20120;-78
2023/04/30 10:23:10;;;;;;;4.00;2.60;;;20.40;99.90;;;;;;5025553;28;20560;-78
2023/04/30 10:25:37;;;;;;;3.20;2.50;;;20.40;99.90;;;;;;5006449;28;20385;-78
2023/04/30 10:28:03;;;;;;;3.10;2.50;;;20.80;99.90;;;;;;5040807;28;20493;-79
2023/04/30 10:30:30;;;;;;;4.53;2.75;;;21.10;99.90;;;;;;5025700;28;20167;-78
2023/04/30 10:33:14;;;;;;;5.30;3.80;;;21.20;99.90;;;;;;5041040;28;20032;-79
2023/04/30 10:35:45;;;;;;;3.92;3.10;;;20.90;99.90;;;;;;5041531;28;20496;-79
2023/04/30 10:38:15;;;;;;;6.90;4.43;;;21.10;99.90;;;;;;5008783;28;20033;-78
2023/04/30 10:40:44;;;;;;;5.30;2.70;;;21.20;99.90;;;;;;5025854;28;20037;-79
2023/04/30 10:43:10;;;;;;;3.22;2.92;;;21.30;99.90;;;;;;5005745;28;20036;-78
2023/04/30 10:45:37;;;;;;;3.22;2.90;;;21.40;99.90;;;;;;5023087;28;20033;-79
2023/04/30 10:48:03;;;;;;;5.15;3.85;;;21.50;99.90;;;;;;5005750;28;20025;-79
2023/04/30 10:50:29;;;;;;;4.03;3.40;;;21.40;99.90;;;;;;5040575;28;20040;-79
2023/04/30 10:53:02;;;;;;;3.78;3.35;;;21.50;99.90;;;;;;5023154;28;20033;-80
2023/04/30 10:55:28;;;;;;;3.80;3.17;;;21.40;99.90;;;;;;5021199;28;20066;-79
2023/04/30 10:57:54;;;;;;;4.93;2.83;;;21.40;99.90;;;;;;5005010;28;20045;-79
2023/04/30 11:00:27;;;;;;;4.30;2.90;;;21.50;99.90;;;;;;5024685;28;20056;-80
2023/04/30 11:02:57;;;;;;;4.60;2.88;;;21.60;99.90;;;;;;5025335;28;20032;-80
2023/04/30 11:05:36;;;;;;;3.58;3.28;;;22.10;99.90;;;;;;5006944;28;20043;-80
2023/04/30 11:08:02;;;;;;;4.13;2.38;;;22.10;99.90;;;;;;5027486;28;20495;-80
2023/04/30 11:10:33;;;;;;;6.25;3.58;;;22.20;99.90;;;;;;5007858;28;20021;-80
2023/04/30 11:13:02;;;;;;;3.65;2.83;;;22.40;99.90;;;;;;5005439;28;20047;-80
2023/04/30 11:15:40;;;;;;;4.53;3.55;;;22.20;99.90;;;;;;5023682;28;20162;-81
2023/04/30 11:18:06;;;;;;;4.80;3.30;;;22.20;99.80;;;;;;5028857;28;20035;-80
2023/04/30 11:20:32;;;;;;;3.15;2.67;;;22.30;99.90;;;;;;5027725;28;20090;-81
2023/04/30 11:23:14;;;;;;;4.55;2.28;;;22.40;99.90;;;;;;5041637;28;20124;-82
2023/04/30 11:25:45;;;;;;;3.58;2.80;;;22.60;99.90;;;;;;5038562;28;20711;-81
2023/04/30 11:28:19;;;;;;;3.78;2.45;;;22.50;99.90;;;;;;5040362;28;20029;-82
2023/04/30 11:30:50;;;;;;;1.95;1.58;;;22.60;99.90;;;;;;5026678;28;20045;-80
2023/04/30 11:33:16;;;;;;;4.05;2.38;;;22.50;99.80;;;;;;5009731;28;20500;-81
2023/04/30 11:35:42;;;;;;;4.15;2.30;;;22.60;98.30;;;;;;5041063;28;20059;-82
2023/04/30 11:38:08;;;;;;;3.05;2.40;;;22.50;98.10;;;;;;5040052;28;20041;-81
2023/04/30 11:40:35;;;;;;;1.67;1.20;;;22.60;96.20;;;;;;5009644;28;20025;-81
2023/04/30 11:43:00;;;;;;;2.45;1.90;;;23.30;97.10;;;;;;5008623;28;20029;-83
2023/04/30 11:45:26;;;;;;;3.08;2.45;;;23.10;97.00;;;;;;5007667;28;20036;-83
2023/04/30 11:47:53;;;;;;;3.53;2.67;;;23.40;97.20;;;;;;5038618;28;20025;-83
2023/04/30 11:50:25;;;;;;;2.28;1.90;;;23.30;96.10;;;;;;5025062;28;20035;-83
2023/04/30 11:52:51;;;;;;;2.97;2.60;;;23.20;97.40;;;;;;5040533;28;20040;-83
2023/04/30 11:55:18;;;;;;;3.35;2.33;;;22.90;95.40;;;;;;5010744;28;20112;-81
2023/04/30 11:57:50;;;;;;;2.97;2.22;;;22.60;94.00;;;;;;5042047;28;20146;-83
2023/04/30 12:00:17;;;;;;;4.97;1.88;;;22.60;95.00;;;;;;4348094;28;10000030;-81
2023/04/30 12:02:44;;;;;;;2.70;2.50;;;22.50;92.50;;;;;;5014900;28;20044;-81
2023/04/30 12:05:20;;;;;;;2.55;2.35;;;22.40;91.30;;;;;;5032492;28;20491;-83
2023/04/30 12:07:46;;;;;;;;;;;22.40;92.50;;;;;;5011939;28;20051;-82
2023/04/30 12:10:12;;;;;;;4.05;1.70;;;22.50;92.80;;;;;;5045436;28;19920;-82
2023/04/30 12:12:38;;;;;;;2.17;1.55;;;22.70;93.20;;;;;;5028943;28;20067;-81
2023/04/30 12:15:16;;;;;;;2.03;1.42;;;22.80;93.80;;;;;;5049588;28;20465;-82
2023/04/30 12:17:43;;;;;;;2.42;1.40;;;23.20;93.90;;;;;;5048619;28;20449;-82
2023/04/30 12:20:10;;;;;;;2.45;1.70;;;23.00;91.40;;;;;;5048865;28;20036;-80
2023/04/30 12:22:36;;;;;;;3.38;2.65;;;22.90;91.20;;;;;;5015654;28;20403;-82
2023/04/30 12:25:08;;;;;;;1.88;1.20;;;22.80;88.40;;;;;;5014938;28;20056;-82
2023/04/30 12:27:35;;;;;;;1.33;1.05;;;22.80;90.20;;;;;;5031483;28;20025;-82
2023/04/30 12:30:07;;;;;;;1.42;1.27;;;23.10;91.20;;;;;;5052214;28;20041;-81
2023/04/30 12:32:44;;;;;;;2.75;1.45;;;23.40;90.40;;;;;;5031776;28;20063;-84
2023/04/30 12:35:19;;;;;;;2.38;1.70;;;23.10;86.20;;;;;;5014174;28;20120;-82
2023/04/30 12:37:46;;;;;;;;;;;23.40;91.50;;;;;;5032681;28;20037;-82
2023/04/30 12:40:12;;;;;;;1.27;1.05;;;23.60;90.90;;;;;;5042981;28;20003;-82